sensor_id;sensor_type;location;lat;lon;timestamp;temperature;humidity
18191;DHT22;47004;51.366;12.348;2023-11-22T00:00:27;1.50;99.90
18191;DHT22;47004;51.366;12.348;2023-11-22T00:02:29;1.50;99.90
18191;DHT22;47004;51.366;12.348;2023-11-22T00:04:31;1.50;99.90
18191;DHT22;47004;51.366;12.348;2023-11-22T00:06:33;1.60;99.90
18191;DHT22;47004;51.366;12.348;2023-11-22T00:08:34;1.50;99.90
18191;DHT22;47004;51.366;12.348;2023-11-22T00:10:36;1.50;99.90
18191;DHT22;47004;51.366;12.348;2023-11-22T00:12:39;1.50;99.90
18191;DHT22;47004;51.366;12.348;2023-11-22T00:14:40;1.50;99.90
18191;DHT22;47004;51.366;12.348;2023-11-22T00:16:42;1.50;99.90
18191;DHT22;47004;51.366;12.348;2023-11-22T00:18:44;2.00;99.90
18191;DHT22;47004;51.366;12.348;2023-11-22T00:20:46;1.50;99.90
18191;DHT22;47004;51.366;12.348;2023-11-22T00:22:49;1.50;99.90
18191;DHT22;47004;51.366;12.348;2023-11-22T00:24:52;1.60;99.90
18191;DHT22;47004;51.366;12.348;2023-11-22T00:26:54;1.40;99.90
18191;DHT22;47004;51.366;12.348;2023-11-22T00:28:57;1.40;99.90
18191;DHT22;47004;51.366;12.348;2023-11-22T00:30:59;1.40;99.90
18191;DHT22;47004;51.366;12.348;2023-11-22T00:33:01;1.40;99.90
18191;DHT22;47004;51.366;12.348;2023-11-22T00:35:05;1.40;99.90
18191;DHT22;47004;51.366;12.348;2023-11-22T00:37:08;1.40;99.90
18191;DHT22;47004;51.366;12.348;2023-11-22T00:39:11;1.40;99.90
18191;DHT22;47004;51.366;12.348;2023-11-22T00:41:13;1.40;99.90
18191;DHT22;47004;51.366;12.348;2023-11-22T00:43:15;1.40;99.90
18191;DHT22;47004;51.366;12.348;2023-11-22T00:45:19;1.40;99.90
18191;DHT22;47004;51.366;12.348;2023-11-22T00:47:21;1.40;99.90
18191;DHT22;47004;51.366;12.348;2023-11-22T00:49:23;1.30;99.90
18191;DHT22;47004;51.366;12.348;2023-11-22T00:51:24;1.30;99.90
18191;DHT22;47004;51.366;12.348;2023-11-22T00:53:27;1.30;99.90
18191;DHT22;47004;51.366;12.348;2023-11-22T00:55:30;1.30;99.90
18191;DHT22;47004;51.366;12.348;2023-11-22T00:57:32;1.30;99.90
18191;DHT22;47004;51.366;12.348;2023-11-22T00:59:34;1.30;99.90
18191;DHT22;47004;51.366;12.348;2023-11-22T01:01:37;1.30;99.90
18191;DHT22;47004;51.366;12.348;2023-11-22T01:03:39;1.30;99.90
18191;DHT22;47004;51.366;12.348;2023-11-22T01:05:41;1.30;99.90
18191;DHT22;47004;51.366;12.348;2023-11-22T01:07:43;1.30;99.90
18191;DHT22;47004;51.366;12.348;2023-11-22T01:09:45;1.20;99.90
18191;DHT22;47004;51.366;12.348;2023-11-22T01:11:47;1.30;99.90
18191;DHT22;47004;51.366;12.348;2023-11-22T01:13:48;1.30;99.90
18191;DHT22;47004;51.366;12.348;2023-11-22T01:15:50;1.30;99.90
18191;DHT22;47004;51.366;12.348;2023-11-22T01:17:52;1.30;99.90
18191;DHT22;47004;51.366;12.348;2023-11-22T01:19:54;1.20;99.90
18191;DHT22;47004;51.366;12.348;2023-11-22T01:21:56;1.20;99.90
18191;DHT22;47004;51.366;12.348;2023-11-22T01:23:58;1.20;99.90
18191;DHT22;47004;51.366;12.348;2023-11-22T01:26:00;1.20;99.90
18191;DHT22;47004;51.366;12.348;2023-11-22T01:28:03;1.20;99.90
18191;DHT22;47004;51.366;12.348;2023-11-22T01:30:07;1.20;99.90
18191;DHT22;47004;51.366;12.348;2023-11-22T01:32:10;1.20;99.90
18191;DHT22;47004;51.366;12.348;2023-11-22T01:34:13;1.20;99.90
18191;DHT22;47004;51.366;12.348;2023-11-22T01:36:15;1.20;99.90
18191;DHT22;47004;51.366;12.348;2023-11-22T01:38:17;1.20;99.90
18191;DHT22;47004;51.366;12.348;2023-11-22T01:40:19;1.10;99.90
18191;DHT22;47004;51.366;12.348;2023-11-22T01:42:21;1.10;99.90
18191;DHT22;47004;51.366;12.348;2023-11-22T01:44:24;1.10;99.90
18191;DHT22;47004;51.366;12.348;2023-11-22T01:46:27;1.10;99.90
18191;DHT22;47004;51.366;12.348;2023-11-22T01:48:29;1.00;99.90
18191;DHT22;47004;51.366;12.348;2023-11-22T01:50:34;1.00;99.90
18191;DHT22;47004;51.366;12.348;2023-11-22T01:52:35;1.00;99.90
18191;DHT22;47004;51.366;12.348;2023-11-22T01:54:37;0.90;99.90
18191;DHT22;47004;51.366;12.348;2023-11-22T01:56:41;0.90;99.90
18191;DHT22;47004;51.366;12.348;2023-11-22T01:58:43;0.80;99.90
18191;DHT22;47004;51.366;12.348;2023-11-22T02:00:50;0.80;99.90
18191;DHT22;47004;51.366;12.348;2023-11-22T02:02:53;0.70;99.90
18191;DHT22;47004;51.366;12.348;2023-11-22T02:04:54;0.70;99.90
18191;DHT22;47004;51.366;12.348;2023-11-22T02:06:58;0.70;99.90
18191;DHT22;47004;51.366;12.348;2023-11-22T02:09:00;0.60;99.90
18191;DHT22;47004;51.366;12.348;2023-11-22T02:11:02;0.60;99.90
18191;DHT22;47004;51.366;12.348;2023-11-22T02:13:04;0.50;99.90
18191;DHT22;47004;51.366;12.348;2023-11-22T02:15:09;0.50;99.90
18191;DHT22;47004;51.366;12.348;2023-11-22T02:17:11;0.50;99.90
18191;DHT22;47004;51.366;12.348;2023-11-22T02:19:15;0.40;99.90
18191;DHT22;47004;51.366;12.348;2023-11-22T02:21:18;0.40;99.90
18191;DHT22;47004;51.366;12.348;2023-11-22T02:23:23;0.40;99.90
18191;DHT22;47004;51.366;12.348;2023-11-22T02:25:24;0.30;99.90
18191;DHT22;47004;51.366;12.348;2023-11-22T02:27:26;0.30;99.90
18191;DHT22;47004;51.366;12.348;2023-11-22T02:29:28;0.20;99.90
18191;DHT22;47004;51.366;12.348;2023-11-22T02:31:30;0.20;99.90
18191;DHT22;47004;51.366;12.348;2023-11-22T02:33:34;0.20;99.90
18191;DHT22;47004;51.366;12.348;2023-11-22T02:35:36;0.10;99.90
18191;DHT22;47004;51.366;12.348;2023-11-22T02:37:37;0.10;99.90
18191;DHT22;47004;51.366;12.348;2023-11-22T02:39:49;0.00;99.90
18191;DHT22;47004;51.366;12.348;2023-11-22T02:41:54;0.00;99.90
18191;DHT22;47004;51.366;12.348;2023-11-22T02:43:56;0.00;99.90
18191;DHT22;47004;51.366;12.348;2023-11-22T02:45:58;0.00;99.90
18191;DHT22;47004;51.366;12.348;2023-11-22T02:47:59;-0.10;99.90
18191;DHT22;47004;51.366;12.348;2023-11-22T02:50:05;0.20;99.90
18191;DHT22;47004;51.366;12.348;2023-11-22T02:52:07;-0.20;99.90
18191;DHT22;47004;51.366;12.348;2023-11-22T02:54:09;-0.20;99.90
18191;DHT22;47004;51.366;12.348;2023-11-22T02:56:12;-0.20;99.90
18191;DHT22;47004;51.366;12.348;2023-11-22T02:58:14;0.00;99.90
18191;DHT22;47004;51.366;12.348;2023-11-22T03:00:18;-0.20;99.90
18191;DHT22;47004;51.366;12.348;2023-11-22T03:02:20;-0.20;99.90
18191;DHT22;47004;51.366;12.348;2023-11-22T03:04:22;-0.30;99.90
18191;DHT22;47004;51.366;12.348;2023-11-22T03:06:24;-0.30;99.90
18191;DHT22;47004;51.366;12.348;2023-11-22T03:08:26;-0.30;99.90
18191;DHT22;47004;51.366;12.348;2023-11-22T03:10:28;-0.30;99.90
18191;DHT22;47004;51.366;12.348;2023-11-22T03:12:31;-0.40;99.90
18191;DHT22;47004;51.366;12.348;2023-11-22T03:14:33;-0.40;99.90
18191;DHT22;47004;51.366;12.348;2023-11-22T03:16:38;-0.40;99.90
18191;DHT22;47004;51.366;12.348;2023-11-22T03:18:40;-0.40;99.90
18191;DHT22;47004;51.366;12.348;2023-11-22T03:20:42;-0.40;99.90
18191;DHT22;47004;51.366;12.348;2023-11-22T03:22:44;-0.50;99.90
18191;DHT22;47004;51.366;12.348;2023-11-22T03:24:46;-0.50;99.90
18191;DHT22;47004;51.366;12.348;2023-11-22T03:26:48;-0.50;99.90
18191;DHT22;47004;51.366;12.348;2023-11-22T03:28:51;-0.50;99.90
18191;DHT22;47004;51.366;12.348;2023-11-22T03:30:53;-0.60;99.90
18191;DHT22;47004;51.366;12.348;2023-11-22T03:32:55;-0.60;99.90
18191;DHT22;47004;51.366;12.348;2023-11-22T03:34:57;-0.60;99.90
18191;DHT22;47004;51.366;12.348;2023-11-22T03:36:58;-0.60;99.90
18191;DHT22;47004;51.366;12.348;2023-11-22T03:39:00;-0.70;99.90
18191;DHT22;47004;51.366;12.348;2023-11-22T03:41:03;-0.60;99.90
18191;DHT22;47004;51.366;12.348;2023-11-22T03:43:05;-0.70;99.90
18191;DHT22;47004;51.366;12.348;2023-11-22T03:45:11;-0.70;99.90
18191;DHT22;47004;51.366;12.348;2023-11-22T03:47:15;-0.70;99.90
18191;DHT22;47004;51.366;12.348;2023-11-22T03:49:17;-0.70;99.90
18191;DHT22;47004;51.366;12.348;2023-11-22T03:51:19;-0.80;99.90
18191;DHT22;47004;51.366;12.348;2023-11-22T03:53:21;-0.70;99.90
18191;DHT22;47004;51.366;12.348;2023-11-22T03:55:23;-0.80;99.90
18191;DHT22;47004;51.366;12.348;2023-11-22T03:57:25;-0.80;99.90
18191;DHT22;47004;51.366;12.348;2023-11-22T03:59:26;-0.80;99.90
18191;DHT22;47004;51.366;12.348;2023-11-22T04:01:30;-0.80;99.90
18191;DHT22;47004;51.366;12.348;2023-11-22T04:03:32;-0.90;99.90
18191;DHT22;47004;51.366;12.348;2023-11-22T04:05:33;-0.90;99.90
18191;DHT22;47004;51.366;12.348;2023-11-22T04:07:35;-0.90;99.90
18191;DHT22;47004;51.366;12.348;2023-11-22T04:09:36;-0.90;99.90
18191;DHT22;47004;51.366;12.348;2023-11-22T04:11:38;-0.90;99.90
18191;DHT22;47004;51.366;12.348;2023-11-22T04:13:40;-0.90;99.90
18191;DHT22;47004;51.366;12.348;2023-11-22T04:15:42;-0.90;99.90
18191;DHT22;47004;51.366;12.348;2023-11-22T04:17:45;-1.00;99.90
18191;DHT22;47004;51.366;12.348;2023-11-22T04:19:47;-1.00;99.90
18191;DHT22;47004;51.366;12.348;2023-11-22T04:21:49;-1.00;99.90
18191;DHT22;47004;51.366;12.348;2023-11-22T04:23:51;-1.00;99.90
18191;DHT22;47004;51.366;12.348;2023-11-22T04:25:53;-1.00;99.90
18191;DHT22;47004;51.366;12.348;2023-11-22T04:27:55;-1.00;99.90
18191;DHT22;47004;51.366;12.348;2023-11-22T04:29:57;-1.10;99.90
18191;DHT22;47004;51.366;12.348;2023-11-22T04:31:59;-1.10;99.90
18191;DHT22;47004;51.366;12.348;2023-11-22T04:34:03;-1.10;99.90
18191;DHT22;47004;51.366;12.348;2023-11-22T04:36:05;-1.10;99.90
18191;DHT22;47004;51.366;12.348;2023-11-22T04:38:07;-1.10;99.90
18191;DHT22;47004;51.366;12.348;2023-11-22T04:40:11;-1.20;99.90
18191;DHT22;47004;51.366;12.348;2023-11-22T04:42:12;-1.20;99.90
18191;DHT22;47004;51.366;12.348;2023-11-22T04:44:14;-1.20;99.90
18191;DHT22;47004;51.366;12.348;2023-11-22T04:46:16;-1.20;99.90
18191;DHT22;47004;51.366;12.348;2023-11-22T04:48:17;-1.20;99.90
18191;DHT22;47004;51.366;12.348;2023-11-22T04:50:20;-1.20;99.90
18191;DHT22;47004;51.366;12.348;2023-11-22T04:52:21;-1.20;99.90
18191;DHT22;47004;51.366;12.348;2023-11-22T04:54:23;-1.30;99.90
18191;DHT22;47004;51.366;12.348;2023-11-22T04:56:25;-1.20;99.90
18191;DHT22;47004;51.366;12.348;2023-11-22T04:58:27;-1.30;99.90
18191;DHT22;47004;51.366;12.348;2023-11-22T05:00:28;-1.30;99.90
18191;DHT22;47004;51.366;12.348;2023-11-22T05:02:30;-1.30;99.90
18191;DHT22;47004;51.366;12.348;2023-11-22T05:04:31;-1.40;99.90
18191;DHT22;47004;51.366;12.348;2023-11-22T05:06:35;-1.40;99.90
18191;DHT22;47004;51.366;12.348;2023-11-22T05:08:37;-1.40;99.90
18191;DHT22;47004;51.366;12.348;2023-11-22T05:10:38;-1.30;99.90
18191;DHT22;47004;51.366;12.348;2023-11-22T05:12:40;-1.40;99.90
18191;DHT22;47004;51.366;12.348;2023-11-22T05:14:42;-1.40;99.90
18191;DHT22;47004;51.366;12.348;2023-11-22T05:16:44;-1.40;99.90
18191;DHT22;47004;51.366;12.348;2023-11-22T05:18:46;-1.30;99.90
18191;DHT22;47004;51.366;12.348;2023-11-22T05:20:48;-1.40;99.90
18191;DHT22;47004;51.366;12.348;2023-11-22T05:22:51;-1.40;99.90
18191;DHT22;47004;51.366;12.348;2023-11-22T05:24:53;-1.40;99.90
18191;DHT22;47004;51.366;12.348;2023-11-22T05:26:54;-1.30;99.90
18191;DHT22;47004;51.366;12.348;2023-11-22T05:28:56;-1.30;99.90
18191;DHT22;47004;51.366;12.348;2023-11-22T05:30:58;-1.40;99.90
18191;DHT22;47004;51.366;12.348;2023-11-22T05:33:00;-1.40;99.90
18191;DHT22;47004;51.366;12.348;2023-11-22T05:35:02;-1.40;99.90
18191;DHT22;47004;51.366;12.348;2023-11-22T05:37:06;-1.40;99.90
18191;DHT22;47004;51.366;12.348;2023-11-22T05:39:10;-1.30;99.90
18191;DHT22;47004;51.366;12.348;2023-11-22T05:41:12;-1.40;99.90
18191;DHT22;47004;51.366;12.348;2023-11-22T05:43:14;-1.40;99.90
18191;DHT22;47004;51.366;12.348;2023-11-22T05:45:16;-1.40;99.90
18191;DHT22;47004;51.366;12.348;2023-11-22T05:47:17;-1.40;99.90
18191;DHT22;47004;51.366;12.348;2023-11-22T05:49:20;-1.40;99.90
18191;DHT22;47004;51.366;12.348;2023-11-22T05:51:21;-1.40;99.90
18191;DHT22;47004;51.366;12.348;2023-11-22T05:53:23;-1.40;99.90
18191;DHT22;47004;51.366;12.348;2023-11-22T05:55:26;-1.40;99.90
18191;DHT22;47004;51.366;12.348;2023-11-22T05:57:28;-1.40;99.90
18191;DHT22;47004;51.366;12.348;2023-11-22T05:59:31;-1.40;99.90
18191;DHT22;47004;51.366;12.348;2023-11-22T06:01:33;-1.40;99.90
18191;DHT22;47004;51.366;12.348;2023-11-22T06:03:35;-1.50;99.90
18191;DHT22;47004;51.366;12.348;2023-11-22T06:05:38;-1.50;99.90
18191;DHT22;47004;51.366;12.348;2023-11-22T06:07:40;-1.50;99.90
18191;DHT22;47004;51.366;12.348;2023-11-22T06:09:41;-1.50;99.90
18191;DHT22;47004;51.366;12.348;2023-11-22T06:11:45;-1.50;99.90
18191;DHT22;47004;51.366;12.348;2023-11-22T06:13:47;-1.60;99.90
18191;DHT22;47004;51.366;12.348;2023-11-22T06:15:49;-1.10;99.90
18191;DHT22;47004;51.366;12.348;2023-11-22T06:17:51;-1.60;99.90
18191;DHT22;47004;51.366;12.348;2023-11-22T06:19:53;-1.50;99.90
18191;DHT22;47004;51.366;12.348;2023-11-22T06:21:55;-1.60;99.90
18191;DHT22;47004;51.366;12.348;2023-11-22T06:23:57;-1.60;99.90
18191;DHT22;47004;51.366;12.348;2023-11-22T06:25:59;-1.60;99.90
18191;DHT22;47004;51.366;12.348;2023-11-22T06:28:03;-1.60;99.90
18191;DHT22;47004;51.366;12.348;2023-11-22T06:30:06;-1.50;99.90
18191;DHT22;47004;51.366;12.348;2023-11-22T06:32:09;-1.50;99.90
18191;DHT22;47004;51.366;12.348;2023-11-22T06:34:11;-1.40;99.90
18191;DHT22;47004;51.366;12.348;2023-11-22T06:36:13;-1.40;99.90
18191;DHT22;47004;51.366;12.348;2023-11-22T06:38:15;-1.40;99.90
18191;DHT22;47004;51.366;12.348;2023-11-22T06:40:18;-1.40;99.90
18191;DHT22;47004;51.366;12.348;2023-11-22T06:42:24;-1.40;99.90
18191;DHT22;47004;51.366;12.348;2023-11-22T06:44:28;-1.40;99.90
18191;DHT22;47004;51.366;12.348;2023-11-22T06:46:30;-1.40;99.90
18191;DHT22;47004;51.366;12.348;2023-11-22T06:48:32;-1.40;99.90
18191;DHT22;47004;51.366;12.348;2023-11-22T06:50:33;-1.40;99.90
18191;DHT22;47004;51.366;12.348;2023-11-22T06:52:35;-1.40;99.90
18191;DHT22;47004;51.366;12.348;2023-11-22T06:54:38;-1.30;99.90
18191;DHT22;47004;51.366;12.348;2023-11-22T06:56:40;-1.30;99.90
18191;DHT22;47004;51.366;12.348;2023-11-22T06:58:42;-1.30;99.90
18191;DHT22;47004;51.366;12.348;2023-11-22T07:00:46;-1.30;99.90
18191;DHT22;47004;51.366;12.348;2023-11-22T07:02:48;-1.30;99.90
18191;DHT22;47004;51.366;12.348;2023-11-22T07:04:50;-1.30;99.90
18191;DHT22;47004;51.366;12.348;2023-11-22T07:06:52;-1.30;99.90
18191;DHT22;47004;51.366;12.348;2023-11-22T07:08:54;-1.30;99.90
18191;DHT22;47004;51.366;12.348;2023-11-22T07:10:56;-1.30;99.90
18191;DHT22;47004;51.366;12.348;2023-11-22T07:12:57;-1.30;99.90
18191;DHT22;47004;51.366;12.348;2023-11-22T07:14:59;-1.30;99.90
18191;DHT22;47004;51.366;12.348;2023-11-22T07:17:03;-1.30;99.90
18191;DHT22;47004;51.366;12.348;2023-11-22T07:19:07;-1.30;99.90
18191;DHT22;47004;51.366;12.348;2023-11-22T07:21:09;-1.40;99.90
18191;DHT22;47004;51.366;12.348;2023-11-22T07:23:12;-1.40;99.90
18191;DHT22;47004;51.366;12.348;2023-11-22T07:25:14;-1.40;99.90
18191;DHT22;47004;51.366;12.348;2023-11-22T07:27:19;-1.40;99.90
18191;DHT22;47004;51.366;12.348;2023-11-22T07:29:21;-1.40;99.90
18191;DHT22;47004;51.366;12.348;2023-11-22T07:31:27;-1.40;99.90
18191;DHT22;47004;51.366;12.348;2023-11-22T07:33:31;-1.40;99.90
18191;DHT22;47004;51.366;12.348;2023-11-22T07:35:33;-1.40;99.90
18191;DHT22;47004;51.366;12.348;2023-11-22T07:37:35;-1.40;99.90
18191;DHT22;47004;51.366;12.348;2023-11-22T07:39:39;-1.40;99.90
18191;DHT22;47004;51.366;12.348;2023-11-22T07:41:43;-1.30;99.90
18191;DHT22;47004;51.366;12.348;2023-11-22T07:43:46;-1.30;99.90
18191;DHT22;47004;51.366;12.348;2023-11-22T07:45:48;-1.30;99.90
18191;DHT22;47004;51.366;12.348;2023-11-22T07:47:51;-1.30;99.90
18191;DHT22;47004;51.366;12.348;2023-11-22T07:49:55;-1.20;99.90
18191;DHT22;47004;51.366;12.348;2023-11-22T07:51:56;-1.20;99.90
18191;DHT22;47004;51.366;12.348;2023-11-22T07:53:58;-1.20;99.90
18191;DHT22;47004;51.366;12.348;2023-11-22T07:56:03;-1.20;99.90
18191;DHT22;47004;51.366;12.348;2023-11-22T07:58:05;-1.20;99.90
18191;DHT22;47004;51.366;12.348;2023-11-22T08:00:08;-1.10;99.90
18191;DHT22;47004;51.366;12.348;2023-11-22T08:02:12;-1.10;99.90
18191;DHT22;47004;51.366;12.348;2023-11-22T08:04:14;-1.10;99.90
18191;DHT22;47004;51.366;12.348;2023-11-22T08:06:18;-1.00;99.90
18191;DHT22;47004;51.366;12.348;2023-11-22T08:08:21;-1.00;99.90
18191;DHT22;47004;51.366;12.348;2023-11-22T08:10:23;-1.00;99.90
18191;DHT22;47004;51.366;12.348;2023-11-22T08:12:26;-0.90;99.90
18191;DHT22;47004;51.366;12.348;2023-11-22T08:14:29;-0.90;99.90
18191;DHT22;47004;51.366;12.348;2023-11-22T08:16:31;-0.90;99.90
18191;DHT22;47004;51.366;12.348;2023-11-22T08:18:39;-0.90;99.90
18191;DHT22;47004;51.366;12.348;2023-11-22T08:20:41;-0.90;99.90
18191;DHT22;47004;51.366;12.348;2023-11-22T08:22:45;-0.90;99.90
18191;DHT22;47004;51.366;12.348;2023-11-22T08:24:46;-0.90;99.90
18191;DHT22;47004;51.366;12.348;2023-11-22T08:26:48;-0.90;99.90
18191;DHT22;47004;51.366;12.348;2023-11-22T08:28:50;-0.90;99.90
18191;DHT22;47004;51.366;12.348;2023-11-22T08:30:52;-0.90;99.90
18191;DHT22;47004;51.366;12.348;2023-11-22T08:32:55;-0.90;99.90
18191;DHT22;47004;51.366;12.348;2023-11-22T08:34:57;-0.90;99.90
18191;DHT22;47004;51.366;12.348;2023-11-22T08:36:58;-0.80;99.90
18191;DHT22;47004;51.366;12.348;2023-11-22T08:39:02;-0.80;99.90
18191;DHT22;47004;51.366;12.348;2023-11-22T08:41:06;-0.80;99.90
18191;DHT22;47004;51.366;12.348;2023-11-22T08:43:08;-0.80;99.90
18191;DHT22;47004;51.366;12.348;2023-11-22T08:45:10;-0.80;99.90
18191;DHT22;47004;51.366;12.348;2023-11-22T08:47:12;-0.70;99.90
18191;DHT22;47004;51.366;12.348;2023-11-22T08:49:15;-0.60;99.90
18191;DHT22;47004;51.366;12.348;2023-11-22T08:51:17;-0.70;99.90
18191;DHT22;47004;51.366;12.348;2023-11-22T08:53:19;-0.60;99.90
18191;DHT22;47004;51.366;12.348;2023-11-22T08:55:22;-0.60;99.90
18191;DHT22;47004;51.366;12.348;2023-11-22T08:57:25;-0.50;99.90
18191;DHT22;47004;51.366;12.348;2023-11-22T08:59:26;-0.50;99.90
18191;DHT22;47004;51.366;12.348;2023-11-22T09:01:28;-0.40;99.90
18191;DHT22;47004;51.366;12.348;2023-11-22T09:03:30;-0.40;99.90
18191;DHT22;47004;51.366;12.348;2023-11-22T09:05:36;-0.40;99.90
18191;DHT22;47004;51.366;12.348;2023-11-22T09:07:37;-0.40;99.90
18191;DHT22;47004;51.366;12.348;2023-11-22T09:09:40;-0.30;99.90
18191;DHT22;47004;51.366;12.348;2023-11-22T09:11:45;-0.30;99.90
18191;DHT22;47004;51.366;12.348;2023-11-22T09:13:47;-0.20;99.90
18191;DHT22;47004;51.366;12.348;2023-11-22T09:15:50;-0.20;99.90
18191;DHT22;47004;51.366;12.348;2023-11-22T09:17:52;-0.20;99.90
18191;DHT22;47004;51.366;12.348;2023-11-22T09:19:54;-0.10;99.90
18191;DHT22;47004;51.366;12.348;2023-11-22T09:21:59;-0.10;99.90
18191;DHT22;47004;51.366;12.348;2023-11-22T09:24:01;-0.10;99.90
18191;DHT22;47004;51.366;12.348;2023-11-22T09:26:06;-0.10;99.90
18191;DHT22;47004;51.366;12.348;2023-11-22T09:28:09;-0.10;99.90
18191;DHT22;47004;51.366;12.348;2023-11-22T09:30:12;-0.10;99.90
18191;DHT22;47004;51.366;12.348;2023-11-22T09:32:18;0.00;99.90
18191;DHT22;47004;51.366;12.348;2023-11-22T09:34:20;0.00;99.90
18191;DHT22;47004;51.366;12.348;2023-11-22T09:36:21;0.00;99.90
18191;DHT22;47004;51.366;12.348;2023-11-22T09:38:25;0.00;99.90
18191;DHT22;47004;51.366;12.348;2023-11-22T09:40:27;0.00;99.90
18191;DHT22;47004;51.366;12.348;2023-11-22T09:42:29;0.10;99.90
18191;DHT22;47004;51.366;12.348;2023-11-22T09:44:32;0.10;99.90
18191;DHT22;47004;51.366;12.348;2023-11-22T09:46:36;0.20;99.90
18191;DHT22;47004;51.366;12.348;2023-11-22T09:48:39;0.20;99.90
18191;DHT22;47004;51.366;12.348;2023-11-22T09:50:49;0.20;99.90
18191;DHT22;47004;51.366;12.348;2023-11-22T09:52:52;0.20;99.90
18191;DHT22;47004;51.366;12.348;2023-11-22T09:54:57;0.30;99.90
18191;DHT22;47004;51.366;12.348;2023-11-22T09:56:59;0.30;99.90
18191;DHT22;47004;51.366;12.348;2023-11-22T09:59:04;0.30;99.90
18191;DHT22;47004;51.366;12.348;2023-11-22T10:01:08;0.30;99.90
18191;DHT22;47004;51.366;12.348;2023-11-22T10:03:12;0.30;99.90
18191;DHT22;47004;51.366;12.348;2023-11-22T10:05:15;0.30;99.90
18191;DHT22;47004;51.366;12.348;2023-11-22T10:07:17;0.30;99.90
18191;DHT22;47004;51.366;12.348;2023-11-22T10:09:19;0.20;99.90
18191;DHT22;47004;51.366;12.348;2023-11-22T10:11:24;0.20;99.90
18191;DHT22;47004;51.366;12.348;2023-11-22T10:13:26;0.20;99.90
18191;DHT22;47004;51.366;12.348;2023-11-22T10:15:29;0.10;99.90
18191;DHT22;47004;51.366;12.348;2023-11-22T10:17:33;0.10;99.90
18191;DHT22;47004;51.366;12.348;2023-11-22T10:19:35;0.10;99.90
18191;DHT22;47004;51.366;12.348;2023-11-22T10:21:37;0.10;99.90
18191;DHT22;47004;51.366;12.348;2023-11-22T10:23:40;0.10;99.90
18191;DHT22;47004;51.366;12.348;2023-11-22T10:25:45;0.20;99.90
18191;DHT22;47004;51.366;12.348;2023-11-22T10:27:48;0.20;99.90
18191;DHT22;47004;51.366;12.348;2023-11-22T10:29:52;0.20;99.90
18191;DHT22;47004;51.366;12.348;2023-11-22T10:31:54;0.30;99.90
18191;DHT22;47004;51.366;12.348;2023-11-22T10:33:57;0.30;99.90
18191;DHT22;47004;51.366;12.348;2023-11-22T10:35:59;0.30;99.90
18191;DHT22;47004;51.366;12.348;2023-11-22T10:38:03;0.30;99.90
18191;DHT22;47004;51.366;12.348;2023-11-22T10:40:08;0.30;99.90
18191;DHT22;47004;51.366;12.348;2023-11-22T10:42:11;0.30;99.90
18191;DHT22;47004;51.366;12.348;2023-11-22T10:44:16;0.30;99.90
18191;DHT22;47004;51.366;12.348;2023-11-22T10:46:16;0.30;99.90
18191;DHT22;47004;51.366;12.348;2023-11-22T10:48:19;0.30;99.90
18191;DHT22;47004;51.366;12.348;2023-11-22T10:50:23;0.40;99.90
18191;DHT22;47004;51.366;12.348;2023-11-22T10:52:27;0.40;99.90
18191;DHT22;47004;51.366;12.348;2023-11-22T10:54:29;0.40;99.90
18191;DHT22;47004;51.366;12.348;2023-11-22T10:56:36;0.40;99.90
18191;DHT22;47004;51.366;12.348;2023-11-22T10:58:46;0.40;99.90
18191;DHT22;47004;51.366;12.348;2023-11-22T11:00:48;0.50;99.90
18191;DHT22;47004;51.366;12.348;2023-11-22T11:02:54;0.50;99.90
18191;DHT22;47004;51.366;12.348;2023-11-22T11:05:03;0.50;99.90
18191;DHT22;47004;51.366;12.348;2023-11-22T11:07:17;0.60;99.90
18191;DHT22;47004;51.366;12.348;2023-11-22T11:09:19;0.60;99.90
18191;DHT22;47004;51.366;12.348;2023-11-22T11:11:25;0.70;99.90
18191;DHT22;47004;51.366;12.348;2023-11-22T11:13:30;0.70;99.90
18191;DHT22;47004;51.366;12.348;2023-11-22T11:15:32;0.80;99.90
18191;DHT22;47004;51.366;12.348;2023-11-22T11:17:35;0.80;99.90
18191;DHT22;47004;51.366;12.348;2023-11-22T11:19:38;0.80;99.90
18191;DHT22;47004;51.366;12.348;2023-11-22T11:21:40;0.80;99.90
18191;DHT22;47004;51.366;12.348;2023-11-22T11:23:43;0.90;99.90
18191;DHT22;47004;51.366;12.348;2023-11-22T11:25:47;0.90;99.90
18191;DHT22;47004;51.366;12.348;2023-11-22T11:27:56;1.00;99.90
18191;DHT22;47004;51.366;12.348;2023-11-22T11:29:59;1.00;99.90
18191;DHT22;47004;51.366;12.348;2023-11-22T11:32:02;1.00;99.90
18191;DHT22;47004;51.366;12.348;2023-11-22T11:34:05;1.00;99.90
18191;DHT22;47004;51.366;12.348;2023-11-22T11:36:08;1.10;99.90
18191;DHT22;47004;51.366;12.348;2023-11-22T11:38:09;1.10;99.90
18191;DHT22;47004;51.366;12.348;2023-11-22T11:40:31;1.10;99.90
18191;DHT22;47004;51.366;12.348;2023-11-22T11:42:33;1.10;99.90
18191;DHT22;47004;51.366;12.348;2023-11-22T11:44:35;1.10;99.90
18191;DHT22;47004;51.366;12.348;2023-11-22T11:46:38;1.10;99.90
18191;DHT22;47004;51.366;12.348;2023-11-22T11:48:42;1.10;99.90
18191;DHT22;47004;51.366;12.348;2023-11-22T11:50:46;1.10;99.90
18191;DHT22;47004;51.366;12.348;2023-11-22T11:52:48;1.10;99.90
18191;DHT22;47004;51.366;12.348;2023-11-22T11:54:51;1.10;99.90
18191;DHT22;47004;51.366;12.348;2023-11-22T11:56:58;1.10;99.90
18191;DHT22;47004;51.366;12.348;2023-11-22T11:58:59;1.10;99.90
18191;DHT22;47004;51.366;12.348;2023-11-22T12:01:04;1.10;99.90
18191;DHT22;47004;51.366;12.348;2023-11-22T12:03:06;1.10;99.90
18191;DHT22;47004;51.366;12.348;2023-11-22T12:05:10;1.00;99.90
18191;DHT22;47004;51.366;12.348;2023-11-22T12:07:13;1.00;99.90
18191;DHT22;47004;51.366;12.348;2023-11-22T12:09:15;1.00;99.90
18191;DHT22;47004;51.366;12.348;2023-11-22T12:11:24;1.00;99.90
18191;DHT22;47004;51.366;12.348;2023-11-22T12:13:28;1.00;99.90
18191;DHT22;47004;51.366;12.348;2023-11-22T12:15:30;1.00;99.90
18191;DHT22;47004;51.366;12.348;2023-11-22T12:17:33;1.00;99.90
18191;DHT22;47004;51.366;12.348;2023-11-22T12:19:34;1.10;99.90
18191;DHT22;47004;51.366;12.348;2023-11-22T12:21:36;1.10;99.90
18191;DHT22;47004;51.366;12.348;2023-11-22T12:23:39;1.10;99.90
18191;DHT22;47004;51.366;12.348;2023-11-22T12:25:42;1.20;99.90
18191;DHT22;47004;51.366;12.348;2023-11-22T12:27:44;1.20;99.90
18191;DHT22;47004;51.366;12.348;2023-11-22T12:29:48;1.20;99.90
18191;DHT22;47004;51.366;12.348;2023-11-22T12:31:51;1.20;99.90
18191;DHT22;47004;51.366;12.348;2023-11-22T12:33:57;1.20;99.90
18191;DHT22;47004;51.366;12.348;2023-11-22T12:35:59;1.20;99.90
18191;DHT22;47004;51.366;12.348;2023-11-22T12:38:02;1.20;99.90
18191;DHT22;47004;51.366;12.348;2023-11-22T12:40:13;1.20;99.90
18191;DHT22;47004;51.366;12.348;2023-11-22T12:42:18;1.20;99.90
18191;DHT22;47004;51.366;12.348;2023-11-22T12:44:21;1.30;99.90
18191;DHT22;47004;51.366;12.348;2023-11-22T12:46:24;1.20;99.90
18191;DHT22;47004;51.366;12.348;2023-11-22T12:48:26;1.20;99.90